KALN

St Louis Regional Airport

Alton/St Louis, Illinois, USA
METAR KALN 110435Z AUTO 00000KT 10SM CLR M04/M04 A3028 RMK AO2 T10371044
Observed Flight Rules
Dec-11 @ 04:35 UTC (25 minutes ago) Visual Flight Rules
Visibility Clouds
10 miles
  • Clear skies
Temperatures Readings
Current -4°C / 25°F
Dewpoint -4°C / 25°F
Humidity 100%
Altimeter 30.28" Hg
Pressure 1025 hPa
Elevation 166
METAR KALN 110435Z AUTO 00000KT 10SM CLR M04/M04 A3028 RMK AO2 T10371044
Observed Flight Rules
Dec-11 @ 04:35 UTC
(25 minutes ago)
VFR
Clouds
  • Clear skies
Temperature Dewpoint
-4°C / 25°F -4°C / 25°F
Humidity Altimeter Pressure
100% 30.28" Hg 1025 hPa